Huntsville, Indiana
Current Conditions -  °F | °C
As of 3:35 PM on Saturday 20 Dec 2014 (Local Time) from KMQJ Reporting Station
Scattered Clouds Scattered Clouds  
Wind Chill: 32°   Ceiling: Unl
Heat Index: 32°   Visibility: 10mi
Dew Point: 18°   Wind: 0mph
Humidity: 55%   Direction: NA
Pressure: 30.25"   Gusts: NA
Location:  39.98°N, 85.7739°W
Report Text: KMQJ 202035Z AUTO 00000KT 10SM SCT024 SCT065 00/M08 A3025 RMK AO1
Loading
Personal Weather Stations






























Interactive Weather Map New forecast layout! Learn more

10-Day Weather Forecast

Advertisements
Track Severe Weather on mobile